sensor_id;sensor_type;location;lat;lon;timestamp;pressure;altitude;pressure_sealevel;temperature
75428;BMP280;64008;55.612;37.698;2023-09-12T00:00:07;100027.25;;;22.41
75428;BMP280;64008;55.612;37.698;2023-09-12T00:02:32;100022.66;;;22.42
75428;BMP280;64008;55.612;37.698;2023-09-12T00:04:58;100029.63;;;22.43
75428;BMP280;64008;55.612;37.698;2023-09-12T00:07:24;100027.44;;;22.45
75428;BMP280;64008;55.612;37.698;2023-09-12T00:09:49;100027.44;;;22.45
75428;BMP280;64008;55.612;37.698;2023-09-12T00:12:15;100026.47;;;22.41
75428;BMP280;64008;55.612;37.698;2023-09-12T00:14:41;100027.25;;;22.41
75428;BMP280;64008;55.612;37.698;2023-09-12T00:17:07;100027.25;;;22.41
75428;BMP280;64008;55.612;37.698;2023-09-12T00:19:32;100030.75;;;22.42
75428;BMP280;64008;55.612;37.698;2023-09-12T00:21:58;100027.56;;;22.40
75428;BMP280;64008;55.612;37.698;2023-09-12T00:24:23;100033.72;;;22.40
75428;BMP280;64008;55.612;37.698;2023-09-12T00:26:49;100033.72;;;22.40
75428;BMP280;64008;55.612;37.698;2023-09-12T00:29:14;100031.03;;;22.40
75428;BMP280;64008;55.612;37.698;2023-09-12T00:31:40;100034.38;;;22.37
75428;BMP280;64008;55.612;37.698;2023-09-12T00:34:05;100043.22;;;22.38
75428;BMP280;64008;55.612;37.698;2023-09-12T00:36:31;100043.22;;;22.38
75428;BMP280;64008;55.612;37.698;2023-09-12T00:38:58;100043.22;;;22.38
75428;BMP280;64008;55.612;37.698;2023-09-12T00:41:23;100042.91;;;22.39
75428;BMP280;64008;55.612;37.698;2023-09-12T00:43:49;100047.00;;;22.37
75428;BMP280;64008;55.612;37.698;2023-09-12T00:46:18;100059.69;;;22.36
75428;BMP280;64008;55.612;37.698;2023-09-12T00:48:45;100055.38;;;22.35
75428;BMP280;64008;55.612;37.698;2023-09-12T00:51:13;100055.38;;;22.35
75428;BMP280;64008;55.612;37.698;2023-09-12T00:53:39;100052.22;;;22.33
75428;BMP280;64008;55.612;37.698;2023-09-12T00:56:06;100060.56;;;22.32
75428;BMP280;64008;55.612;37.698;2023-09-12T00:58:32;100062.78;;;22.29
75428;BMP280;64008;55.612;37.698;2023-09-12T01:00:58;100062.78;;;22.29
75428;BMP280;64008;55.612;37.698;2023-09-12T01:03:24;100056.59;;;22.29
75428;BMP280;64008;55.612;37.698;2023-09-12T01:05:50;100071.94;;;22.28
75428;BMP280;64008;55.612;37.698;2023-09-12T01:08:17;100060.38;;;22.28
75428;BMP280;64008;55.612;37.698;2023-09-12T01:10:43;100063.41;;;22.26
75428;BMP280;64008;55.612;37.698;2023-09-12T01:13:14;100064.47;;;22.25
75428;BMP280;64008;55.612;37.698;2023-09-12T01:15:41;100064.78;;;22.24
75428;BMP280;64008;55.612;37.698;2023-09-12T01:18:07;100064.78;;;22.24
75428;BMP280;64008;55.612;37.698;2023-09-12T01:20:35;100066.19;;;22.21
75428;BMP280;64008;55.612;37.698;2023-09-12T01:24:00;100065.09;;;22.22
75428;BMP280;64008;55.612;37.698;2023-09-12T01:29:30;100069.69;;;22.22
75428;BMP280;64008;55.612;37.698;2023-09-12T01:31:57;100067.00;;;22.22
75428;BMP280;64008;55.612;37.698;2023-09-12T01:34:23;100065.38;;;22.21
75428;BMP280;64008;55.612;37.698;2023-09-12T01:36:48;100067.78;;;22.22
75428;BMP280;64008;55.612;37.698;2023-09-12T01:39:14;100071.59;;;22.21
75428;BMP280;64008;55.612;37.698;2023-09-12T01:41:42;100064.59;;;22.20
75428;BMP280;64008;55.612;37.698;2023-09-12T01:44:10;100071.03;;;22.19
75428;BMP280;64008;55.612;37.698;2023-09-12T01:46:37;100068.66;;;22.18
75428;BMP280;64008;55.612;37.698;2023-09-12T01:49:04;100068.66;;;22.18
75428;BMP280;64008;55.612;37.698;2023-09-12T01:51:31;100065.78;;;22.14
75428;BMP280;64008;55.612;37.698;2023-09-12T01:53:58;100071.75;;;22.11
75428;BMP280;64008;55.612;37.698;2023-09-12T01:56:24;100071.75;;;22.11
75428;BMP280;64008;55.612;37.698;2023-09-12T01:58:50;100084.13;;;22.12
75428;BMP280;64008;55.612;37.698;2023-09-12T02:01:15;100082.03;;;22.09
75428;BMP280;64008;55.612;37.698;2023-09-12T02:03:41;100082.03;;;22.09
75428;BMP280;64008;55.612;37.698;2023-09-12T02:06:06;100077.13;;;22.11
75428;BMP280;64008;55.612;37.698;2023-09-12T02:08:32;100085.03;;;22.07
75428;BMP280;64008;55.612;37.698;2023-09-12T02:10:58;100085.03;;;22.07
75428;BMP280;64008;55.612;37.698;2023-09-12T02:13:23;100083.72;;;22.05
75428;BMP280;64008;55.612;37.698;2023-09-12T02:15:49;100082.13;;;22.04
75428;BMP280;64008;55.612;37.698;2023-09-12T02:18:14;100091.31;;;22.03
75428;BMP280;64008;55.612;37.698;2023-09-12T02:20:41;100091.31;;;22.03
75428;BMP280;64008;55.612;37.698;2023-09-12T02:23:07;100093.50;;;22.01
75428;BMP280;64008;55.612;37.698;2023-09-12T02:25:32;100092.22;;;21.98
75428;BMP280;64008;55.612;37.698;2023-09-12T02:27:58;100092.22;;;21.98
75428;BMP280;64008;55.612;37.698;2023-09-12T02:30:23;100093.31;;;21.97
75428;BMP280;64008;55.612;37.698;2023-09-12T02:32:49;100092.50;;;21.97
75428;BMP280;64008;55.612;37.698;2023-09-12T02:35:14;100092.50;;;21.97
75428;BMP280;64008;55.612;37.698;2023-09-12T02:37:40;100101.16;;;21.94
75428;BMP280;64008;55.612;37.698;2023-09-12T02:40:06;100102.28;;;21.93
75428;BMP280;64008;55.612;37.698;2023-09-12T02:42:32;100102.28;;;21.93
75428;BMP280;64008;55.612;37.698;2023-09-12T02:44:58;100095.00;;;21.93
75428;BMP280;64008;55.612;37.698;2023-09-12T02:47:23;100100.66;;;21.92
75428;BMP280;64008;55.612;37.698;2023-09-12T02:49:49;100097.69;;;21.93
75428;BMP280;64008;55.612;37.698;2023-09-12T02:52:14;100107.47;;;21.89
75428;BMP280;64008;55.612;37.698;2023-09-12T02:54:40;100099.88;;;21.91
75428;BMP280;64008;55.612;37.698;2023-09-12T02:57:05;100105.84;;;21.88
75428;BMP280;64008;55.612;37.698;2023-09-12T02:59:31;100105.84;;;21.88
75428;BMP280;64008;55.612;37.698;2023-09-12T03:01:56;100104.97;;;21.93
75428;BMP280;64008;55.612;37.698;2023-09-12T03:04:25;100107.25;;;21.85
75428;BMP280;64008;55.612;37.698;2023-09-12T03:06:50;100109.94;;;21.85
75428;BMP280;64008;55.612;37.698;2023-09-12T03:09:16;100107.25;;;21.85
75428;BMP280;64008;55.612;37.698;2023-09-12T03:11:42;100107.25;;;21.85
75428;BMP280;64008;55.612;37.698;2023-09-12T03:14:07;100105.94;;;21.83
75428;BMP280;64008;55.612;37.698;2023-09-12T03:16:33;100112.13;;;21.83
75428;BMP280;64008;55.612;37.698;2023-09-12T03:18:58;100112.13;;;21.83
75428;BMP280;64008;55.612;37.698;2023-09-12T03:21:26;100108.94;;;21.81
75428;BMP280;64008;55.612;37.698;2023-09-12T03:23:51;100106.25;;;21.81
75428;BMP280;64008;55.612;37.698;2023-09-12T03:26:17;100108.94;;;21.81
75428;BMP280;64008;55.612;37.698;2023-09-12T03:28:42;100108.94;;;21.81
75428;BMP280;64008;55.612;37.698;2023-09-12T03:31:10;100103.38;;;21.78
75428;BMP280;64008;55.612;37.698;2023-09-12T03:33:43;100110.63;;;21.77
75428;BMP280;64008;55.612;37.698;2023-09-12T03:36:13;100110.63;;;21.77
75428;BMP280;64008;55.612;37.698;2023-09-12T03:38:38;100117.91;;;21.77
75428;BMP280;64008;55.612;37.698;2023-09-12T03:41:04;100113.31;;;21.77
75428;BMP280;64008;55.612;37.698;2023-09-12T03:43:30;100113.31;;;21.77
75428;BMP280;64008;55.612;37.698;2023-09-12T03:45:55;100115.50;;;21.75
75428;BMP280;64008;55.612;37.698;2023-09-12T03:48:21;100122.78;;;21.75
75428;BMP280;64008;55.612;37.698;2023-09-12T03:50:46;100120.88;;;21.75
75428;BMP280;64008;55.612;37.698;2023-09-12T03:53:15;100128.47;;;21.73
75428;BMP280;64008;55.612;37.698;2023-09-12T03:55:41;100124.34;;;21.76
75428;BMP280;64008;55.612;37.698;2023-09-12T03:58:07;100128.25;;;21.83
75428;BMP280;64008;55.612;37.698;2023-09-12T04:00:32;100128.25;;;21.83
75428;BMP280;64008;55.612;37.698;2023-09-12T04:02:58;100118.50;;;21.74
75428;BMP280;64008;55.612;37.698;2023-09-12T04:05:25;100118.31;;;21.70
75428;BMP280;64008;55.612;37.698;2023-09-12T04:07:50;100125.22;;;21.71
75428;BMP280;64008;55.612;37.698;2023-09-12T04:10:17;100127.03;;;21.76
75428;BMP280;64008;55.612;37.698;2023-09-12T04:12:43;100127.03;;;21.76
75428;BMP280;64008;55.612;37.698;2023-09-12T04:15:09;100130.47;;;21.81
75428;BMP280;64008;55.612;37.698;2023-09-12T04:17:35;100130.47;;;21.81
75428;BMP280;64008;55.612;37.698;2023-09-12T04:20:00;100139.31;;;21.82
75428;BMP280;64008;55.612;37.698;2023-09-12T04:22:26;100143.31;;;21.84
75428;BMP280;64008;55.612;37.698;2023-09-12T04:24:51;100138.72;;;21.85
75428;BMP280;64008;55.612;37.698;2023-09-12T04:27:17;100137.66;;;21.86
75428;BMP280;64008;55.612;37.698;2023-09-12T04:29:42;100131.16;;;21.87
75428;BMP280;64008;55.612;37.698;2023-09-12T04:32:09;100138.13;;;21.88
75428;BMP280;64008;55.612;37.698;2023-09-12T04:34:34;100136.78;;;21.91
75428;BMP280;64008;55.612;37.698;2023-09-12T04:37:01;100136.78;;;21.91
75428;BMP280;64008;55.612;37.698;2023-09-12T04:39:28;100133.75;;;21.92
75428;BMP280;64008;55.612;37.698;2023-09-12T04:41:53;100136.44;;;21.92
75428;BMP280;64008;55.612;37.698;2023-09-12T04:44:19;100140.75;;;21.93
75428;BMP280;64008;55.612;37.698;2023-09-12T04:46:44;100146.13;;;22.07
75428;BMP280;64008;55.612;37.698;2023-09-12T04:49:10;100146.13;;;22.07
75428;BMP280;64008;55.612;37.698;2023-09-12T04:51:35;100143.16;;;22.09
75428;BMP280;64008;55.612;37.698;2023-09-12T04:54:01;100150.72;;;22.06
75428;BMP280;64008;55.612;37.698;2023-09-12T04:56:26;100143.84;;;22.00
75428;BMP280;64008;55.612;37.698;2023-09-12T04:58:52;100149.00;;;21.97
75428;BMP280;64008;55.612;37.698;2023-09-12T05:01:17;100143.72;;;21.92
75428;BMP280;64008;55.612;37.698;2023-09-12T05:03:43;100143.72;;;21.92
75428;BMP280;64008;55.612;37.698;2023-09-12T05:06:13;100150.00;;;21.87
75428;BMP280;64008;55.612;37.698;2023-09-12T05:08:38;100157.66;;;21.80
75428;BMP280;64008;55.612;37.698;2023-09-12T05:11:04;100157.66;;;21.80
75428;BMP280;64008;55.612;37.698;2023-09-12T05:13:30;100158.25;;;21.77
75428;BMP280;64008;55.612;37.698;2023-09-12T05:15:55;100158.25;;;21.77
75428;BMP280;64008;55.612;37.698;2023-09-12T05:18:22;100155.03;;;21.75
75428;BMP280;64008;55.612;37.698;2023-09-12T05:20:47;100155.84;;;21.75
75428;BMP280;64008;55.612;37.698;2023-09-12T05:23:13;100155.84;;;21.75
75428;BMP280;64008;55.612;37.698;2023-09-12T05:25:39;100158.66;;;21.70
75428;BMP280;64008;55.612;37.698;2023-09-12T05:28:04;100158.66;;;21.70
75428;BMP280;64008;55.612;37.698;2023-09-12T05:30:30;100162.31;;;21.74
75428;BMP280;64008;55.612;37.698;2023-09-12T05:32:56;100165.00;;;21.74
75428;BMP280;64008;55.612;37.698;2023-09-12T05:35:21;100164.50;;;21.72
75428;BMP280;64008;55.612;37.698;2023-09-12T05:37:47;100169.09;;;21.72
75428;BMP280;64008;55.612;37.698;2023-09-12T05:40:13;100169.09;;;21.72
75428;BMP280;64008;55.612;37.698;2023-09-12T05:42:38;100172.56;;;21.72
75428;BMP280;64008;55.612;37.698;2023-09-12T05:45:05;100172.78;;;21.76
75428;BMP280;64008;55.612;37.698;2023-09-12T05:47:31;100174.19;;;21.73
75428;BMP280;64008;55.612;37.698;2023-09-12T05:49:56;100170.19;;;21.71
75428;BMP280;64008;55.612;37.698;2023-09-12T05:52:24;100170.19;;;21.71
75428;BMP280;64008;55.612;37.698;2023-09-12T05:54:50;100179.25;;;21.75
75428;BMP280;64008;55.612;37.698;2023-09-12T05:57:16;100179.25;;;21.75
75428;BMP280;64008;55.612;37.698;2023-09-12T05:59:43;100183.75;;;21.79
75428;BMP280;64008;55.612;37.698;2023-09-12T06:02:08;100183.75;;;21.79
75428;BMP280;64008;55.612;37.698;2023-09-12T06:04:35;100183.75;;;21.79
75428;BMP280;64008;55.612;37.698;2023-09-12T06:07:04;100191.81;;;21.79
75428;BMP280;64008;55.612;37.698;2023-09-12T06:09:29;100193.72;;;21.79
75428;BMP280;64008;55.612;37.698;2023-09-12T06:11:55;100193.63;;;21.84
75428;BMP280;64008;55.612;37.698;2023-09-12T06:14:20;100206.59;;;21.82
75428;BMP280;64008;55.612;37.698;2023-09-12T06:16:46;100206.59;;;21.82
75428;BMP280;64008;55.612;37.698;2023-09-12T06:19:11;100204.06;;;21.72
75428;BMP280;64008;55.612;37.698;2023-09-12T06:21:37;100200.34;;;21.68
75428;BMP280;64008;55.612;37.698;2023-09-12T06:24:14;100193.91;;;21.69
75428;BMP280;64008;55.612;37.698;2023-09-12T06:26:40;100197.66;;;21.68
75428;BMP280;64008;55.612;37.698;2023-09-12T06:29:06;100197.66;;;21.68
75428;BMP280;64008;55.612;37.698;2023-09-12T06:31:32;100196.09;;;21.67
75428;BMP280;64008;55.612;37.698;2023-09-12T06:33:57;100194.50;;;21.66
75428;BMP280;64008;55.612;37.698;2023-09-12T06:36:26;100194.41;;;21.71
75428;BMP280;64008;55.612;37.698;2023-09-12T06:38:58;100204.56;;;21.74
75428;BMP280;64008;55.612;37.698;2023-09-12T06:41:25;100198.69;;;21.72
75428;BMP280;64008;55.612;37.698;2023-09-12T06:43:50;100200.25;;;21.73
75428;BMP280;64008;55.612;37.698;2023-09-12T06:46:16;100196.69;;;21.77
75428;BMP280;64008;55.612;37.698;2023-09-12T06:48:45;100199.91;;;21.79
75428;BMP280;64008;55.612;37.698;2023-09-12T06:51:11;100199.91;;;21.79
75428;BMP280;64008;55.612;37.698;2023-09-12T06:53:37;100191.03;;;21.79
75428;BMP280;64008;55.612;37.698;2023-09-12T06:56:06;100188.03;;;21.80
75428;BMP280;64008;55.612;37.698;2023-09-12T06:58:32;100198.50;;;21.82
75428;BMP280;64008;55.612;37.698;2023-09-12T07:01:01;100199.00;;;21.84
75428;BMP280;64008;55.612;37.698;2023-09-12T07:03:27;100199.00;;;21.84
75428;BMP280;64008;55.612;37.698;2023-09-12T07:05:53;100199.00;;;21.84
75428;BMP280;64008;55.612;37.698;2023-09-12T07:08:18;100201.91;;;21.88
75428;BMP280;64008;55.612;37.698;2023-09-12T07:10:45;100200.00;;;21.88
75428;BMP280;64008;55.612;37.698;2023-09-12T07:13:11;100200.00;;;21.88
75428;BMP280;64008;55.612;37.698;2023-09-12T07:15:36;100205.13;;;21.90
75428;BMP280;64008;55.612;37.698;2023-09-12T07:18:02;100205.13;;;21.90
75428;BMP280;64008;55.612;37.698;2023-09-12T07:20:28;100197.31;;;21.88
75428;BMP280;64008;55.612;37.698;2023-09-12T07:22:53;100206.72;;;21.91
75428;BMP280;64008;55.612;37.698;2023-09-12T07:25:19;100197.84;;;21.90
75428;BMP280;64008;55.612;37.698;2023-09-12T07:27:46;100200.00;;;21.88
75428;BMP280;64008;55.612;37.698;2023-09-12T07:30:12;100201.00;;;21.92
75428;BMP280;64008;55.612;37.698;2023-09-12T07:32:37;100202.91;;;21.92
75428;BMP280;64008;55.612;37.698;2023-09-12T07:35:03;100202.91;;;21.92
75428;BMP280;64008;55.612;37.698;2023-09-12T07:37:28;100193.75;;;21.93
75428;BMP280;64008;55.612;37.698;2023-09-12T07:39:54;100197.25;;;21.93
75428;BMP280;64008;55.612;37.698;2023-09-12T07:42:23;100197.25;;;21.93
75428;BMP280;64008;55.612;37.698;2023-09-12T07:44:49;100193.47;;;21.94
75428;BMP280;64008;55.612;37.698;2023-09-12T07:47:15;100198.03;;;21.94
75428;BMP280;64008;55.612;37.698;2023-09-12T07:49:40;100198.03;;;21.94
75428;BMP280;64008;55.612;37.698;2023-09-12T07:52:06;100202.34;;;21.95
75428;BMP280;64008;55.612;37.698;2023-09-12T07:54:32;100194.75;;;21.97
75428;BMP280;64008;55.612;37.698;2023-09-12T07:56:58;100194.75;;;21.97
75428;BMP280;64008;55.612;37.698;2023-09-12T07:59:24;100202.81;;;21.97
75428;BMP280;64008;55.612;37.698;2023-09-12T08:01:49;100202.00;;;21.82
75428;BMP280;64008;55.612;37.698;2023-09-12T08:04:16;100202.00;;;21.82
75428;BMP280;64008;55.612;37.698;2023-09-12T08:06:41;100196.84;;;21.86
75428;BMP280;64008;55.612;37.698;2023-09-12T08:09:09;100196.84;;;21.86
75428;BMP280;64008;55.612;37.698;2023-09-12T08:11:35;100187.06;;;21.90
75428;BMP280;64008;55.612;37.698;2023-09-12T08:14:01;100187.06;;;21.90
75428;BMP280;64008;55.612;37.698;2023-09-12T08:16:26;100194.53;;;21.79
75428;BMP280;64008;55.612;37.698;2023-09-12T08:18:52;100186.75;;;21.78
75428;BMP280;64008;55.612;37.698;2023-09-12T08:21:17;100186.75;;;21.78
75428;BMP280;64008;55.612;37.698;2023-09-12T08:23:43;100188.72;;;21.72
75428;BMP280;64008;55.612;37.698;2023-09-12T08:26:08;100187.84;;;21.77
75428;BMP280;64008;55.612;37.698;2023-09-12T08:28:34;100191.13;;;21.74
75428;BMP280;64008;55.612;37.698;2023-09-12T08:31:00;100186.50;;;21.60
75428;BMP280;64008;55.612;37.698;2023-09-12T08:33:25;100186.50;;;21.60
75428;BMP280;64008;55.612;37.698;2023-09-12T08:35:51;100187.72;;;21.68
75428;BMP280;64008;55.612;37.698;2023-09-12T08:38:16;100189.03;;;21.71
75428;BMP280;64008;55.612;37.698;2023-09-12T08:40:50;100189.03;;;21.71
75428;BMP280;64008;55.612;37.698;2023-09-12T08:43:16;100191.13;;;21.74
75428;BMP280;64008;55.612;37.698;2023-09-12T08:45:42;100187.09;;;21.71
75428;BMP280;64008;55.612;37.698;2023-09-12T08:48:11;100188.13;;;21.75
75428;BMP280;64008;55.612;37.698;2023-09-12T08:50:38;100188.13;;;21.75
75428;BMP280;64008;55.612;37.698;2023-09-12T08:53:04;100193.13;;;21.82
75428;BMP280;64008;55.612;37.698;2023-09-12T08:55:31;100188.63;;;21.77
75428;BMP280;64008;55.612;37.698;2023-09-12T08:57:59;100183.94;;;21.69
75428;BMP280;64008;55.612;37.698;2023-09-12T09:00:28;100179.69;;;21.63
75428;BMP280;64008;55.612;37.698;2023-09-12T09:02:53;100181.72;;;21.71
75428;BMP280;64008;55.612;37.698;2023-09-12T09:05:20;100170.09;;;21.76
75428;BMP280;64008;55.612;37.698;2023-09-12T09:07:48;100178.97;;;21.76
75428;BMP280;64008;55.612;37.698;2023-09-12T09:10:16;100172.78;;;21.76
75428;BMP280;64008;55.612;37.698;2023-09-12T09:12:43;100169.22;;;21.80
75428;BMP280;64008;55.612;37.698;2023-09-12T09:15:29;100171.28;;;21.70
75428;BMP280;64008;55.612;37.698;2023-09-12T09:17:56;100166.03;;;21.78
75428;BMP280;64008;55.612;37.698;2023-09-12T09:20:33;100159.41;;;21.57
75428;BMP280;64008;55.612;37.698;2023-09-12T09:23:07;100169.97;;;21.67
75428;BMP280;64008;55.612;37.698;2023-09-12T09:25:41;100161.00;;;21.58
75428;BMP280;64008;55.612;37.698;2023-09-12T09:28:18;100158.59;;;21.56
75428;BMP280;64008;55.612;37.698;2023-09-12T09:30:45;100164.31;;;21.69
75428;BMP280;64008;55.612;37.698;2023-09-12T09:33:12;100162.00;;;21.62
75428;BMP280;64008;55.612;37.698;2023-09-12T09:35:38;100166.72;;;21.70
75428;BMP280;64008;55.612;37.698;2023-09-12T09:38:06;100166.22;;;21.82
75428;BMP280;64008;55.612;37.698;2023-09-12T09:40:32;100166.22;;;21.82
75428;BMP280;64008;55.612;37.698;2023-09-12T09:43:02;100173.22;;;21.97
75428;BMP280;64008;55.612;37.698;2023-09-12T09:45:29;100163.69;;;21.91
75428;BMP280;64008;55.612;37.698;2023-09-12T09:48:05;100168.38;;;21.99
75428;BMP280;64008;55.612;37.698;2023-09-12T09:50:37;100168.38;;;21.99
75428;BMP280;64008;55.612;37.698;2023-09-12T09:53:03;100166.84;;;21.60
75428;BMP280;64008;55.612;37.698;2023-09-12T09:55:31;100166.50;;;21.67
75428;BMP280;64008;55.612;37.698;2023-09-12T09:57:57;100166.50;;;21.80
75428;BMP280;64008;55.612;37.698;2023-09-12T10:00:23;100163.88;;;21.94
75428;BMP280;64008;55.612;37.698;2023-09-12T10:02:50;100163.88;;;21.94
75428;BMP280;64008;55.612;37.698;2023-09-12T10:05:20;100159.38;;;22.03
75428;BMP280;64008;55.612;37.698;2023-09-12T10:07:49;100164.75;;;22.03
75428;BMP280;64008;55.612;37.698;2023-09-12T10:10:17;100168.34;;;22.13
75428;BMP280;64008;55.612;37.698;2023-09-12T10:12:57;100168.06;;;22.14
75428;BMP280;64008;55.612;37.698;2023-09-12T10:15:27;100168.06;;;22.14
75428;BMP280;64008;55.612;37.698;2023-09-12T10:17:59;100160.88;;;22.23
75428;BMP280;64008;55.612;37.698;2023-09-12T10:20:29;100159.41;;;22.31
75428;BMP280;64008;55.612;37.698;2023-09-12T10:26:09;100163.69;;;22.46
75428;BMP280;64008;55.612;37.698;2023-09-12T10:28:35;100163.69;;;22.46
75428;BMP280;64008;55.612;37.698;2023-09-12T10:31:01;100161.47;;;22.48
75428;BMP280;64008;55.612;37.698;2023-09-12T10:33:27;100161.47;;;22.48
75428;BMP280;64008;55.612;37.698;2023-09-12T10:35:57;100171.47;;;22.34
75428;BMP280;64008;55.612;37.698;2023-09-12T10:38:26;100163.69;;;22.32
75428;BMP280;64008;55.612;37.698;2023-09-12T10:40:54;100166.19;;;22.42
75428;BMP280;64008;55.612;37.698;2023-09-12T10:43:20;100161.19;;;22.49
75428;BMP280;64008;55.612;37.698;2023-09-12T10:45:48;100161.88;;;22.55
75428;BMP280;64008;55.612;37.698;2023-09-12T10:48:14;100167.16;;;22.60
75428;BMP280;64008;55.612;37.698;2023-09-12T10:50:40;100167.16;;;22.60
75428;BMP280;64008;55.612;37.698;2023-09-12T10:53:13;100163.47;;;22.56
75428;BMP280;64008;55.612;37.698;2023-09-12T10:55:40;100161.72;;;22.74
75428;BMP280;64008;55.612;37.698;2023-09-12T10:58:08;100161.72;;;22.74
75428;BMP280;64008;55.612;37.698;2023-09-12T11:00:34;100161.25;;;22.72
75428;BMP280;64008;55.612;37.698;2023-09-12T11:05:55;100157.84;;;22.80
75428;BMP280;64008;55.612;37.698;2023-09-12T11:08:21;100154.47;;;22.74
75428;BMP280;64008;55.612;37.698;2023-09-12T11:11:22;100154.16;;;22.76
75428;BMP280;64008;55.612;37.698;2023-09-12T11:14:03;100157.03;;;22.80
75428;BMP280;64008;55.612;37.698;2023-09-12T11:16:28;100150.94;;;22.88
75428;BMP280;64008;55.612;37.698;2023-09-12T11:19:22;100150.94;;;22.88
75428;BMP280;64008;55.612;37.698;2023-09-12T11:21:52;100152.41;;;22.94
75428;BMP280;64008;55.612;37.698;2023-09-12T11:24:19;100152.66;;;23.06
75428;BMP280;64008;55.612;37.698;2023-09-12T11:27:01;100152.66;;;23.06
75428;BMP280;64008;55.612;37.698;2023-09-12T11:29:35;100147.09;;;23.03
75428;BMP280;64008;55.612;37.698;2023-09-12T11:32:02;100146.78;;;23.04
75428;BMP280;64008;55.612;37.698;2023-09-12T11:34:30;100145.81;;;23.00
75428;BMP280;64008;55.612;37.698;2023-09-12T11:36:59;100150.97;;;23.10
75428;BMP280;64008;55.612;37.698;2023-09-12T11:39:36;100149.25;;;23.14
75428;BMP280;64008;55.612;37.698;2023-09-12T11:42:03;100156.09;;;23.21
75428;BMP280;64008;55.612;37.698;2023-09-12T11:44:30;100160.28;;;23.27
75428;BMP280;64008;55.612;37.698;2023-09-12T11:46:59;100150.91;;;23.24
75428;BMP280;64008;55.612;37.698;2023-09-12T11:49:39;100150.91;;;23.24
75428;BMP280;64008;55.612;37.698;2023-09-12T11:52:12;100151.22;;;23.23
75428;BMP280;64008;55.612;37.698;2023-09-12T11:54:43;100142.63;;;23.21
75428;BMP280;64008;55.612;37.698;2023-09-12T11:57:10;100142.63;;;23.21
75428;BMP280;64008;55.612;37.698;2023-09-12T11:59:38;100137.13;;;23.03
75428;BMP280;64008;55.612;37.698;2023-09-12T12:02:08;100137.13;;;23.03
75428;BMP280;64008;55.612;37.698;2023-09-12T12:04:34;100131.47;;;23.13
75428;BMP280;64008;55.612;37.698;2023-09-12T12:07:00;100134.16;;;23.13
75428;BMP280;64008;55.612;37.698;2023-09-12T12:09:27;100134.59;;;23.29
75428;BMP280;64008;55.612;37.698;2023-09-12T12:11:52;100134.84;;;23.41
75428;BMP280;64008;55.612;37.698;2023-09-12T12:14:18;100136.47;;;23.51
75428;BMP280;64008;55.612;37.698;2023-09-12T12:16:45;100133.13;;;23.54
75428;BMP280;64008;55.612;37.698;2023-09-12T12:19:12;100134.41;;;23.48
75428;BMP280;64008;55.612;37.698;2023-09-12T12:21:42;100133.59;;;23.48
75428;BMP280;64008;55.612;37.698;2023-09-12T12:24:10;100137.41;;;23.47
75428;BMP280;64008;55.612;37.698;2023-09-12T12:26:37;100137.41;;;23.47
75428;BMP280;64008;55.612;37.698;2023-09-12T12:29:04;100138.94;;;23.39
75428;BMP280;64008;55.612;37.698;2023-09-12T12:31:30;100128.31;;;23.34
75428;BMP280;64008;55.612;37.698;2023-09-12T12:33:56;100128.31;;;23.34
75428;BMP280;64008;55.612;37.698;2023-09-12T12:36:22;100129.84;;;23.35
75428;BMP280;64008;55.612;37.698;2023-09-12T12:38:49;100127.03;;;23.40
75428;BMP280;64008;55.612;37.698;2023-09-12T12:41:23;100127.03;;;23.40
75428;BMP280;64008;55.612;37.698;2023-09-12T12:43:50;100127.03;;;23.40
75428;BMP280;64008;55.612;37.698;2023-09-12T12:46:17;100122.16;;;23.42
75428;BMP280;64008;55.612;37.698;2023-09-12T12:48:45;100124.88;;;23.42
75428;BMP280;64008;55.612;37.698;2023-09-12T12:51:19;100121.34;;;23.41
75428;BMP280;64008;55.612;37.698;2023-09-12T12:53:49;100120.72;;;23.45
75428;BMP280;64008;55.612;37.698;2023-09-12T12:56:17;100120.72;;;23.45
75428;BMP280;64008;55.612;37.698;2023-09-12T12:58:56;100119.63;;;23.46
75428;BMP280;64008;55.612;37.698;2023-09-12T13:01:23;100122.00;;;23.47
75428;BMP280;64008;55.612;37.698;2023-09-12T13:03:49;100121.72;;;23.49
75428;BMP280;64008;55.612;37.698;2023-09-12T13:06:19;100126.78;;;23.50
75428;BMP280;64008;55.612;37.698;2023-09-12T13:08:47;100121.88;;;23.52
75428;BMP280;64008;55.612;37.698;2023-09-12T13:11:14;100121.88;;;23.52
75428;BMP280;64008;55.612;37.698;2023-09-12T13:13:41;100118.41;;;23.52
75428;BMP280;64008;55.612;37.698;2023-09-12T13:16:09;100121.56;;;23.54
75428;BMP280;64008;55.612;37.698;2023-09-12T13:18:36;100121.56;;;23.54
75428;BMP280;64008;55.612;37.698;2023-09-12T13:21:02;100125.38;;;23.53
75428;BMP280;64008;55.612;37.698;2023-09-12T13:23:28;100119.97;;;23.53
75428;BMP280;64008;55.612;37.698;2023-09-12T13:25:54;100119.97;;;23.53
75428;BMP280;64008;55.612;37.698;2023-09-12T13:28:20;100121.56;;;23.54
75428;BMP280;64008;55.612;37.698;2023-09-12T13:30:46;100116.66;;;23.56
75428;BMP280;64008;55.612;37.698;2023-09-12T13:33:12;100113.97;;;23.56
75428;BMP280;64008;55.612;37.698;2023-09-12T13:35:40;100122.56;;;23.58
75428;BMP280;64008;55.612;37.698;2023-09-12T13:38:06;100119.56;;;23.59
75428;BMP280;64008;55.612;37.698;2023-09-12T13:40:41;100117.66;;;23.60
75428;BMP280;64008;55.612;37.698;2023-09-12T13:43:08;100117.66;;;23.60
75428;BMP280;64008;55.612;37.698;2023-09-12T13:45:33;100121.97;;;23.61
75428;BMP280;64008;55.612;37.698;2023-09-12T13:47:59;100120.81;;;23.62
75428;BMP280;64008;55.612;37.698;2023-09-12T13:50:27;100119.72;;;23.63
75428;BMP280;64008;55.612;37.698;2023-09-12T13:52:59;100123.22;;;23.63